sensor_id;sensor_type;location;lat;lon;timestamp;pressure;altitude;pressure_sealevel;temperature;humidity
43824;BME280;29470;53.550;9.926;2023-08-24T00:01:47;101438.31;;;23.83;71.12
43824;BME280;29470;53.550;9.926;2023-08-24T00:06:50;101440.38;;;23.97;70.76
43824;BME280;29470;53.550;9.926;2023-08-24T00:11:54;101437.34;;;23.80;70.47
43824;BME280;29470;53.550;9.926;2023-08-24T00:16:57;101436.53;;;23.82;70.40
43824;BME280;29470;53.550;9.926;2023-08-24T00:22:00;101436.31;;;23.75;71.17
43824;BME280;29470;53.550;9.926;2023-08-24T00:27:04;101428.41;;;23.75;71.08
43824;BME280;29470;53.550;9.926;2023-08-24T00:32:07;101428.22;;;23.68;70.50
43824;BME280;29470;53.550;9.926;2023-08-24T00:37:10;101434.81;;;23.85;71.09
43824;BME280;29470;53.550;9.926;2023-08-24T00:42:15;101430.88;;;23.68;71.52
43824;BME280;29470;53.550;9.926;2023-08-24T00:47:18;101421.16;;;23.67;70.72
43824;BME280;29470;53.550;9.926;2023-08-24T00:52:21;101428.00;;;23.59;72.22
43824;BME280;29470;53.550;9.926;2023-08-24T00:57:27;101430.28;;;23.45;72.94
43824;BME280;29470;53.550;9.926;2023-08-24T01:02:29;101432.69;;;23.37;73.20
43824;BME280;29470;53.550;9.926;2023-08-24T01:07:33;101430.47;;;23.53;72.12
43824;BME280;29470;53.550;9.926;2023-08-24T01:12:50;101435.22;;;23.33;73.39
43824;BME280;29470;53.550;9.926;2023-08-24T01:18:01;101441.84;;;23.20;74.27
43824;BME280;29470;53.550;9.926;2023-08-24T01:23:17;101448.88;;;23.19;74.91
43824;BME280;29470;53.550;9.926;2023-08-24T01:28:23;101455.69;;;23.11;74.17
43824;BME280;29470;53.550;9.926;2023-08-24T01:33:26;101447.97;;;23.19;73.53
43824;BME280;29470;53.550;9.926;2023-08-24T01:38:29;101449.69;;;22.86;75.71
43824;BME280;29470;53.550;9.926;2023-08-24T01:43:35;101453.78;;;22.76;74.81
43824;BME280;29470;53.550;9.926;2023-08-24T01:48:44;101451.06;;;22.73;75.73
43824;BME280;29470;53.550;9.926;2023-08-24T01:53:48;101449.16;;;22.42;76.40
43824;BME280;29470;53.550;9.926;2023-08-24T01:58:53;101446.28;;;22.61;76.04
43824;BME280;29470;53.550;9.926;2023-08-24T02:03:55;101439.75;;;22.48;76.82
43824;BME280;29470;53.550;9.926;2023-08-24T02:08:58;101436.63;;;22.34;77.08
43824;BME280;29470;53.550;9.926;2023-08-24T02:14:05;101431.22;;;22.30;77.88
43824;BME280;29470;53.550;9.926;2023-08-24T02:19:11;101427.91;;;22.08;78.39
43824;BME280;29470;53.550;9.926;2023-08-24T02:24:14;101417.34;;;22.63;75.84
43824;BME280;29470;53.550;9.926;2023-08-24T02:29:18;101427.03;;;22.36;76.19
43824;BME280;29470;53.550;9.926;2023-08-24T02:34:23;101418.66;;;22.48;74.79
43824;BME280;29470;53.550;9.926;2023-08-24T02:39:26;101423.34;;;22.31;77.56
43824;BME280;29470;53.550;9.926;2023-08-24T02:44:30;101416.59;;;22.67;75.26
43824;BME280;29470;53.550;9.926;2023-08-24T02:49:33;101413.41;;;22.48;76.17
43824;BME280;29470;53.550;9.926;2023-08-24T02:54:37;101417.91;;;22.25;76.94
43824;BME280;29470;53.550;9.926;2023-08-24T02:59:41;101414.97;;;22.43;75.94
43824;BME280;29470;53.550;9.926;2023-08-24T03:04:46;101409.50;;;22.37;76.84
43824;BME280;29470;53.550;9.926;2023-08-24T03:09:48;101414.19;;;22.18;76.12
43824;BME280;29470;53.550;9.926;2023-08-24T03:14:53;101415.22;;;22.24;76.46
43824;BME280;29470;53.550;9.926;2023-08-24T03:19:57;101408.94;;;21.92;78.58
43824;BME280;29470;53.550;9.926;2023-08-24T03:25:00;101397.75;;;22.27;77.29
43824;BME280;29470;53.550;9.926;2023-08-24T03:30:05;101409.56;;;21.84;79.09
43824;BME280;29470;53.550;9.926;2023-08-24T03:35:09;101407.03;;;21.87;78.65
43824;BME280;29470;53.550;9.926;2023-08-24T03:40:12;101408.19;;;21.95;78.93
43824;BME280;29470;53.550;9.926;2023-08-24T03:45:16;101394.00;;;21.91;79.68
43824;BME280;29470;53.550;9.926;2023-08-24T03:50:19;101408.13;;;21.68;81.94
43824;BME280;29470;53.550;9.926;2023-08-24T03:55:25;101402.91;;;21.45;82.71
43824;BME280;29470;53.550;9.926;2023-08-24T04:00:29;101392.91;;;21.85;79.99
43824;BME280;29470;53.550;9.926;2023-08-24T04:05:34;101409.69;;;21.62;81.55
43824;BME280;29470;53.550;9.926;2023-08-24T04:10:37;101404.28;;;21.59;82.30
43824;BME280;29470;53.550;9.926;2023-08-24T04:15:41;101405.88;;;21.54;81.69
43824;BME280;29470;53.550;9.926;2023-08-24T04:20:44;101399.75;;;21.80;80.47
43824;BME280;29470;53.550;9.926;2023-08-24T04:25:47;101395.84;;;21.94;79.31
43824;BME280;29470;53.550;9.926;2023-08-24T04:30:53;101387.00;;;21.92;79.06
43824;BME280;29470;53.550;9.926;2023-08-24T04:35:58;101401.19;;;21.45;80.95
43824;BME280;29470;53.550;9.926;2023-08-24T04:41:02;101401.81;;;21.62;80.48
43824;BME280;29470;53.550;9.926;2023-08-24T04:46:10;101398.13;;;21.83;79.53
43824;BME280;29470;53.550;9.926;2023-08-24T04:51:13;101413.06;;;21.84;79.51
43824;BME280;29470;53.550;9.926;2023-08-24T04:56:15;101409.69;;;21.88;79.23
43824;BME280;29470;53.550;9.926;2023-08-24T05:01:22;101405.47;;;21.93;79.47
43824;BME280;29470;53.550;9.926;2023-08-24T05:06:26;101408.66;;;22.11;76.72
43824;BME280;29470;53.550;9.926;2023-08-24T05:11:29;101410.75;;;22.21;75.61
43824;BME280;29470;53.550;9.926;2023-08-24T05:16:33;101424.09;;;21.98;78.58
43824;BME280;29470;53.550;9.926;2023-08-24T05:21:36;101435.50;;;21.99;78.27
43824;BME280;29470;53.550;9.926;2023-08-24T05:26:39;101430.22;;;22.26;76.30
43824;BME280;29470;53.550;9.926;2023-08-24T05:31:43;101416.38;;;22.32;76.36
43824;BME280;29470;53.550;9.926;2023-08-24T05:36:46;101439.78;;;22.22;76.33
43824;BME280;29470;53.550;9.926;2023-08-24T05:41:50;101430.47;;;22.61;73.49
43824;BME280;29470;53.550;9.926;2023-08-24T05:46:54;101415.22;;;22.51;74.28
43824;BME280;29470;53.550;9.926;2023-08-24T05:51:57;101419.19;;;22.65;72.25
43824;BME280;29470;53.550;9.926;2023-08-24T05:57:00;101411.03;;;22.87;70.90
43824;BME280;29470;53.550;9.926;2023-08-24T06:02:04;101416.59;;;22.98;71.02
43824;BME280;29470;53.550;9.926;2023-08-24T06:07:07;101411.25;;;23.25;69.27
43824;BME280;29470;53.550;9.926;2023-08-24T06:12:10;101411.03;;;23.49;67.72
43824;BME280;29470;53.550;9.926;2023-08-24T06:17:14;101411.22;;;23.57;67.05
43824;BME280;29470;53.550;9.926;2023-08-24T06:22:17;101388.31;;;23.56;67.18
43824;BME280;29470;53.550;9.926;2023-08-24T06:27:20;101381.88;;;24.17;63.19
43824;BME280;29470;53.550;9.926;2023-08-24T06:32:25;101369.38;;;23.73;65.02
43824;BME280;29470;53.550;9.926;2023-08-24T06:37:28;101365.97;;;24.13;64.57
43824;BME280;29470;53.550;9.926;2023-08-24T06:42:31;101368.44;;;24.44;62.81
43824;BME280;29470;53.550;9.926;2023-08-24T06:47:35;101361.75;;;25.05;60.34
43824;BME280;29470;53.550;9.926;2023-08-24T06:52:38;101347.38;;;26.50;54.17
43824;BME280;29470;53.550;9.926;2023-08-24T06:57:41;101343.06;;;26.00;54.96
43824;BME280;29470;53.550;9.926;2023-08-24T07:02:45;101339.22;;;26.36;53.47
43824;BME280;29470;53.550;9.926;2023-08-24T07:07:49;101326.84;;;26.38;52.28
43824;BME280;29470;53.550;9.926;2023-08-24T07:12:52;101334.19;;;27.43;50.09
43824;BME280;29470;53.550;9.926;2023-08-24T07:17:57;101338.53;;;27.30;50.51
43824;BME280;29470;53.550;9.926;2023-08-24T07:23:00;101344.13;;;27.58;49.82
43824;BME280;29470;53.550;9.926;2023-08-24T07:28:03;101344.72;;;28.54;46.79
43824;BME280;29470;53.550;9.926;2023-08-24T07:33:07;101337.31;;;31.28;41.70
43824;BME280;29470;53.550;9.926;2023-08-24T07:38:11;101325.13;;;35.85;33.80
43824;BME280;29470;53.550;9.926;2023-08-24T07:43:14;101334.16;;;35.48;33.71
43824;BME280;29470;53.550;9.926;2023-08-24T07:48:18;101326.84;;;36.81;31.33
43824;BME280;29470;53.550;9.926;2023-08-24T07:53:21;101334.50;;;34.55;33.05
43824;BME280;29470;53.550;9.926;2023-08-24T07:58:24;101336.09;;;37.02;30.72
43824;BME280;29470;53.550;9.926;2023-08-24T08:03:29;101331.06;;;35.98;31.44
43824;BME280;29470;53.550;9.926;2023-08-24T08:08:32;101318.78;;;33.39;35.38
43824;BME280;29470;53.550;9.926;2023-08-24T08:13:35;101307.19;;;31.01;39.13
43824;BME280;29470;53.550;9.926;2023-08-24T08:18:39;101303.16;;;30.16;41.22
43824;BME280;29470;53.550;9.926;2023-08-24T08:23:43;101303.06;;;28.59;44.42
43824;BME280;29470;53.550;9.926;2023-08-24T08:28:46;101301.16;;;27.07;48.36
43824;BME280;29470;53.550;9.926;2023-08-24T08:33:51;101300.41;;;27.25;47.99
43824;BME280;29470;53.550;9.926;2023-08-24T08:38:54;101302.81;;;27.00;49.87
43824;BME280;29470;53.550;9.926;2023-08-24T08:43:57;101295.25;;;27.45;48.46
43824;BME280;29470;53.550;9.926;2023-08-24T08:49:02;101298.81;;;27.45;48.99
43824;BME280;29470;53.550;9.926;2023-08-24T08:54:05;101292.53;;;27.34;48.12
43824;BME280;29470;53.550;9.926;2023-08-24T08:59:08;101297.94;;;27.46;47.64
43824;BME280;29470;53.550;9.926;2023-08-24T09:04:13;101298.00;;;27.51;47.14
43824;BME280;29470;53.550;9.926;2023-08-24T09:09:16;101286.91;;;26.98;49.00
43824;BME280;29470;53.550;9.926;2023-08-24T09:14:19;101288.53;;;26.85;47.24
43824;BME280;29470;53.550;9.926;2023-08-24T09:47:12;101297.06;;;25.93;53.60
43824;BME280;29470;53.550;9.926;2023-08-24T09:52:14;101278.09;;;26.25;53.51
43824;BME280;29470;53.550;9.926;2023-08-24T09:57:16;101269.69;;;26.64;52.17
43824;BME280;29470;53.550;9.926;2023-08-24T10:10:53;101252.41;;;27.00;51.01
43824;BME280;29470;53.550;9.926;2023-08-24T10:15:56;101247.44;;;25.83;53.90
43824;BME280;29470;53.550;9.926;2023-08-24T10:20:59;101256.22;;;26.43;52.73
43824;BME280;29470;53.550;9.926;2023-08-24T10:35:05;101200.59;;;26.51;51.37
43824;BME280;29470;53.550;9.926;2023-08-24T10:40:08;101202.94;;;27.11;50.71
43824;BME280;29470;53.550;9.926;2023-08-24T10:45:13;101184.81;;;27.73;47.88
43824;BME280;29470;53.550;9.926;2023-08-24T10:50:18;101198.31;;;26.84;50.34
43824;BME280;29470;53.550;9.926;2023-08-24T10:55:22;101188.00;;;27.26;50.25
43824;BME280;29470;53.550;9.926;2023-08-24T11:00:26;101188.78;;;27.12;50.00
43824;BME280;29470;53.550;9.926;2023-08-24T11:05:32;101175.69;;;27.34;49.29
43824;BME280;29470;53.550;9.926;2023-08-24T11:10:45;101183.59;;;27.25;49.24
43824;BME280;29470;53.550;9.926;2023-08-24T11:15:50;101160.66;;;27.39;48.94
43824;BME280;29470;53.550;9.926;2023-08-24T11:21:00;101137.75;;;27.55;48.18
43824;BME280;29470;53.550;9.926;2023-08-24T11:26:04;101123.78;;;27.98;46.77
43824;BME280;29470;53.550;9.926;2023-08-24T11:31:09;101135.44;;;28.64;46.15
43824;BME280;29470;53.550;9.926;2023-08-24T11:36:13;101137.16;;;28.21;47.01
43824;BME280;29470;53.550;9.926;2023-08-24T11:41:18;101134.56;;;28.66;45.53
43824;BME280;29470;53.550;9.926;2023-08-24T11:46:21;101119.22;;;27.68;47.59
43824;BME280;29470;53.550;9.926;2023-08-24T11:51:25;101100.84;;;28.22;46.85
43824;BME280;29470;53.550;9.926;2023-08-24T11:56:43;101085.78;;;28.38;46.04
43824;BME280;29470;53.550;9.926;2023-08-24T12:01:48;101070.69;;;28.45;46.81
43824;BME280;29470;53.550;9.926;2023-08-24T12:06:52;101054.69;;;28.11;48.08
43824;BME280;29470;53.550;9.926;2023-08-24T12:11:57;101047.53;;;27.75;49.27
43824;BME280;29470;53.550;9.926;2023-08-24T12:17:06;101051.03;;;27.65;49.36
43824;BME280;29470;53.550;9.926;2023-08-24T12:22:13;101057.22;;;27.58;49.76
43824;BME280;29470;53.550;9.926;2023-08-24T12:27:19;101051.16;;;28.08;49.11
43824;BME280;29470;53.550;9.926;2023-08-24T12:32:22;101055.59;;;28.34;47.91
43824;BME280;29470;53.550;9.926;2023-08-24T12:37:29;101050.31;;;28.55;46.57
43824;BME280;29470;53.550;9.926;2023-08-24T12:42:32;101047.66;;;28.79;46.69
43824;BME280;29470;53.550;9.926;2023-08-24T12:47:37;101026.34;;;28.95;45.93
43824;BME280;29470;53.550;9.926;2023-08-24T12:52:42;101000.63;;;27.93;48.34
43824;BME280;29470;53.550;9.926;2023-08-24T12:57:45;100981.09;;;28.65;47.20
43824;BME280;29470;53.550;9.926;2023-08-24T13:02:48;100970.44;;;28.87;46.53
43824;BME280;29470;53.550;9.926;2023-08-24T13:07:53;100974.06;;;28.38;47.71
43824;BME280;29470;53.550;9.926;2023-08-24T13:12:56;100969.59;;;28.42;47.14
43824;BME280;29470;53.550;9.926;2023-08-24T13:17:59;100975.78;;;27.82;48.49
43824;BME280;29470;53.550;9.926;2023-08-24T13:23:04;100962.44;;;28.93;46.20
43824;BME280;29470;53.550;9.926;2023-08-24T13:28:07;100969.59;;;28.38;47.42
43824;BME280;29470;53.550;9.926;2023-08-24T13:33:10;100956.25;;;28.70;47.54
43824;BME280;29470;53.550;9.926;2023-08-24T13:38:18;100958.94;;;28.57;47.32
43824;BME280;29470;53.550;9.926;2023-08-24T13:43:21;100970.44;;;28.72;46.52
43824;BME280;29470;53.550;9.926;2023-08-24T13:48:24;100949.88;;;29.25;46.46
43824;BME280;29470;53.550;9.926;2023-08-24T13:53:29;100957.19;;;28.76;47.69
43824;BME280;29470;53.550;9.926;2023-08-24T13:58:32;100938.59;;;28.03;48.10
43824;BME280;29470;53.550;9.926;2023-08-24T14:03:35;100930.53;;;28.65;47.53
43824;BME280;29470;53.550;9.926;2023-08-24T14:08:40;100928.81;;;28.52;48.16
43824;BME280;29470;53.550;9.926;2023-08-24T14:13:43;100927.00;;;28.60;47.37
43824;BME280;29470;53.550;9.926;2023-08-24T14:18:46;100924.34;;;28.60;48.14
43824;BME280;29470;53.550;9.926;2023-08-24T14:23:50;100916.22;;;29.07;46.38
43824;BME280;29470;53.550;9.926;2023-08-24T14:28:55;100909.25;;;28.73;47.07
43824;BME280;29470;53.550;9.926;2023-08-24T14:33:58;100904.00;;;28.34;47.91
43824;BME280;29470;53.550;9.926;2023-08-24T14:39:03;100904.03;;;28.39;47.33
43824;BME280;29470;53.550;9.926;2023-08-24T14:44:06;100907.31;;;29.17;46.40
43824;BME280;29470;53.550;9.926;2023-08-24T14:49:09;100899.44;;;28.97;46.96
43824;BME280;29470;53.550;9.926;2023-08-24T14:54:14;100896.84;;;28.77;46.88
43824;BME280;29470;53.550;9.926;2023-08-24T14:59:17;100889.56;;;29.13;46.21
43824;BME280;29470;53.550;9.926;2023-08-24T15:04:20;100877.84;;;29.47;45.59
43824;BME280;29470;53.550;9.926;2023-08-24T15:09:25;100897.56;;;29.16;45.62
43824;BME280;29470;53.550;9.926;2023-08-24T15:14:30;100888.28;;;29.79;45.05
43824;BME280;29470;53.550;9.926;2023-08-24T15:19:33;100881.44;;;29.41;45.33
43824;BME280;29470;53.550;9.926;2023-08-24T15:24:38;100877.13;;;29.17;46.60
43824;BME280;29470;53.550;9.926;2023-08-24T15:29:40;100858.28;;;29.51;45.05
43824;BME280;29470;53.550;9.926;2023-08-24T15:34:43;100868.47;;;28.63;47.10
43824;BME280;29470;53.550;9.926;2023-08-24T15:39:48;100853.97;;;29.28;46.04
43824;BME280;29470;53.550;9.926;2023-08-24T15:44:50;100853.41;;;28.56;47.72
43824;BME280;29470;53.550;9.926;2023-08-24T15:49:53;100851.59;;;28.81;47.39
43824;BME280;29470;53.550;9.926;2023-08-24T15:54:57;100840.03;;;28.84;47.13
43824;BME280;29470;53.550;9.926;2023-08-24T16:00:00;100844.47;;;28.85;47.62
43824;BME280;29470;53.550;9.926;2023-08-24T16:05:13;100843.59;;;28.74;48.34
43824;BME280;29470;53.550;9.926;2023-08-24T16:10:18;100840.25;;;28.22;49.15
43824;BME280;29470;53.550;9.926;2023-08-24T16:15:21;100843.72;;;28.36;49.38
43824;BME280;29470;53.550;9.926;2023-08-24T16:20:26;100841.84;;;28.77;48.23
43824;BME280;29470;53.550;9.926;2023-08-24T16:25:31;100843.56;;;28.86;47.91
43824;BME280;29470;53.550;9.926;2023-08-24T16:30:34;100841.84;;;28.71;48.55
43824;BME280;29470;53.550;9.926;2023-08-24T16:35:37;100841.91;;;28.45;48.43
43824;BME280;29470;53.550;9.926;2023-08-24T16:40:41;100824.09;;;28.72;48.54
43824;BME280;29470;53.550;9.926;2023-08-24T16:45:44;100825.00;;;28.66;48.89
43824;BME280;29470;53.550;9.926;2023-08-24T16:50:49;100806.41;;;28.58;48.61
43824;BME280;29470;53.550;9.926;2023-08-24T16:55:54;100793.28;;;27.94;50.49
43824;BME280;29470;53.550;9.926;2023-08-24T17:01:04;100787.09;;;27.43;52.05
43824;BME280;29470;53.550;9.926;2023-08-24T17:06:06;100787.13;;;27.72;51.63
43824;BME280;29470;53.550;9.926;2023-08-24T17:11:11;100782.66;;;27.31;52.41
43824;BME280;29470;53.550;9.926;2023-08-24T17:16:14;100774.72;;;27.20;52.24
43824;BME280;29470;53.550;9.926;2023-08-24T17:21:16;100754.34;;;27.24;52.28
43824;BME280;29470;53.550;9.926;2023-08-24T17:26:23;100750.81;;;27.14;52.82
43824;BME280;29470;53.550;9.926;2023-08-24T17:31:26;100740.22;;;27.49;51.06
43824;BME280;29470;53.550;9.926;2023-08-24T17:36:29;100735.78;;;27.52;51.78
43824;BME280;29470;53.550;9.926;2023-08-24T17:41:33;100718.97;;;27.56;51.51
43824;BME280;29470;53.550;9.926;2023-08-24T17:46:36;100712.75;;;27.26;51.64
43824;BME280;29470;53.550;9.926;2023-08-24T17:51:39;100700.34;;;26.97;54.03
43824;BME280;29470;53.550;9.926;2023-08-24T17:56:43;100700.34;;;27.67;52.67
43824;BME280;29470;53.550;9.926;2023-08-24T18:01:46;100706.56;;;27.30;53.92
43824;BME280;29470;53.550;9.926;2023-08-24T18:06:49;100704.78;;;27.63;52.71
43824;BME280;29470;53.550;9.926;2023-08-24T18:11:53;100709.19;;;27.76;52.76
43824;BME280;29470;53.550;9.926;2023-08-24T18:16:56;100715.38;;;26.88;55.58
43824;BME280;29470;53.550;9.926;2023-08-24T18:21:59;100707.44;;;27.16;55.22
43824;BME280;29470;53.550;9.926;2023-08-24T18:27:03;100689.66;;;26.47;57.43
43824;BME280;29470;53.550;9.926;2023-08-24T18:32:06;100688.75;;;26.43;56.73
43824;BME280;29470;53.550;9.926;2023-08-24T18:37:09;100681.69;;;26.59;57.02
43824;BME280;29470;53.550;9.926;2023-08-24T18:42:13;100666.63;;;26.41;57.53
43824;BME280;29470;53.550;9.926;2023-08-24T18:47:16;100671.97;;;26.57;56.92
43824;BME280;29470;53.550;9.926;2023-08-24T18:52:19;100672.81;;;26.34;57.61
43824;BME280;29470;53.550;9.926;2023-08-24T18:57:23;100678.16;;;26.48;56.81
43824;BME280;29470;53.550;9.926;2023-08-24T19:02:26;100671.03;;;26.30;57.30
43824;BME280;29470;53.550;9.926;2023-08-24T19:07:29;100673.72;;;26.38;57.04
43824;BME280;29470;53.550;9.926;2023-08-24T19:12:33;100678.13;;;26.40;57.16
43824;BME280;29470;53.550;9.926;2023-08-24T19:17:36;100684.31;;;26.38;57.54
43824;BME280;29470;53.550;9.926;2023-08-24T19:22:39;100695.06;;;26.97;56.05
43824;BME280;29470;53.550;9.926;2023-08-24T19:27:43;100669.31;;;26.52;57.49
43824;BME280;29470;53.550;9.926;2023-08-24T19:32:46;100664.06;;;26.82;56.42
43824;BME280;29470;53.550;9.926;2023-08-24T19:37:49;100668.53;;;27.08;55.61
43824;BME280;29470;53.550;9.926;2023-08-24T19:42:54;100667.59;;;26.74;58.06
43824;BME280;29470;53.550;9.926;2023-08-24T19:47:57;100654.25;;;26.40;58.10
43824;BME280;29470;53.550;9.926;2023-08-24T19:53:00;100623.34;;;26.75;56.07
43824;BME280;29470;53.550;9.926;2023-08-24T19:58:04;100606.56;;;26.68;56.75
43824;BME280;29470;53.550;9.926;2023-08-24T20:03:10;100599.53;;;26.86;57.33
43824;BME280;29470;53.550;9.926;2023-08-24T20:08:14;100594.22;;;26.84;57.02
43824;BME280;29470;53.550;9.926;2023-08-24T20:13:18;100580.91;;;26.53;57.89
43824;BME280;29470;53.550;9.926;2023-08-24T20:18:22;100576.47;;;26.29;59.50
43824;BME280;29470;53.550;9.926;2023-08-24T20:23:29;100557.06;;;26.31;59.11
43824;BME280;29470;53.550;9.926;2023-08-24T20:28:33;100549.09;;;26.36;58.53
43824;BME280;29470;53.550;9.926;2023-08-24T20:33:38;100552.47;;;25.81;60.26
43824;BME280;29470;53.550;9.926;2023-08-24T20:38:41;100559.59;;;25.94;60.11
43824;BME280;29470;53.550;9.926;2023-08-24T20:43:45;100557.84;;;26.10;59.61
43824;BME280;29470;53.550;9.926;2023-08-24T20:48:48;100569.41;;;26.26;59.19
43824;BME280;29470;53.550;9.926;2023-08-24T20:53:51;100566.69;;;26.09;61.02
43824;BME280;29470;53.550;9.926;2023-08-24T20:58:57;100558.66;;;25.81;67.57
43824;BME280;29470;53.550;9.926;2023-08-24T21:04:00;100539.84;;;25.24;71.45
43824;BME280;29470;53.550;9.926;2023-08-24T21:09:03;100545.19;;;25.32;74.00
43824;BME280;29470;53.550;9.926;2023-08-24T21:14:07;100532.81;;;25.29;73.88
43824;BME280;29470;53.550;9.926;2023-08-24T21:19:10;100523.91;;;25.10;73.99
43824;BME280;29470;53.550;9.926;2023-08-24T21:24:13;100523.97;;;25.27;74.06
43824;BME280;29470;53.550;9.926;2023-08-24T21:29:17;100525.44;;;24.77;77.05
43824;BME280;29470;53.550;9.926;2023-08-24T21:34:20;100521.28;;;25.18;76.49
43824;BME280;29470;53.550;9.926;2023-08-24T21:39:23;100524.72;;;24.99;78.00
43824;BME280;29470;53.550;9.926;2023-08-24T21:44:27;100513.19;;;24.88;78.70
43824;BME280;29470;53.550;9.926;2023-08-24T21:49:30;100504.22;;;24.69;80.45
43824;BME280;29470;53.550;9.926;2023-08-24T21:54:33;100511.03;;;24.44;82.12
43824;BME280;29470;53.550;9.926;2023-08-24T21:59:37;100493.06;;;25.18;78.38
43824;BME280;29470;53.550;9.926;2023-08-24T22:04:40;100501.50;;;24.64;81.90
43824;BME280;29470;53.550;9.926;2023-08-24T22:09:43;100481.16;;;24.52;81.65
43824;BME280;29470;53.550;9.926;2023-08-24T22:14:47;100497.72;;;24.30;83.34
43824;BME280;29470;53.550;9.926;2023-08-24T22:19:50;100489.94;;;24.45;84.03
43824;BME280;29470;53.550;9.926;2023-08-24T22:24:53;100495.91;;;24.22;85.60
43824;BME280;29470;53.550;9.926;2023-08-24T22:29:57;100485.44;;;24.35;84.61
43824;BME280;29470;53.550;9.926;2023-08-24T22:35:00;100476.88;;;24.70;81.58
43824;BME280;29470;53.550;9.926;2023-08-24T22:40:03;100485.69;;;24.70;82.50
43824;BME280;29470;53.550;9.926;2023-08-24T22:45:12;100483.66;;;24.35;85.10
43824;BME280;29470;53.550;9.926;2023-08-24T22:50:16;100490.78;;;24.41;85.76
43824;BME280;29470;53.550;9.926;2023-08-24T22:55:19;100490.50;;;24.11;86.60
43824;BME280;29470;53.550;9.926;2023-08-24T23:00:23;100474.81;;;24.29;85.53
43824;BME280;29470;53.550;9.926;2023-08-24T23:05:26;100467.72;;;24.24;86.05
43824;BME280;29470;53.550;9.926;2023-08-24T23:10:29;100463.34;;;24.28;86.42
43824;BME280;29470;53.550;9.926;2023-08-24T23:15:33;100464.78;;;23.98;87.62
43824;BME280;29470;53.550;9.926;2023-08-24T23:20:36;100457.88;;;24.05;88.06
43824;BME280;29470;53.550;9.926;2023-08-24T23:25:39;100474.25;;;23.76;89.09
43824;BME280;29470;53.550;9.926;2023-08-24T23:30:46;100458.50;;;23.82;89.75
43824;BME280;29470;53.550;9.926;2023-08-24T23:35:49;100444.38;;;23.78;89.66
43824;BME280;29470;53.550;9.926;2023-08-24T23:40:56;100443.66;;;23.98;88.49
43824;BME280;29470;53.550;9.926;2023-08-24T23:46:04;100450.63;;;23.88;89.33
43824;BME280;29470;53.550;9.926;2023-08-24T23:51:07;100447.28;;;24.02;89.36
43824;BME280;29470;53.550;9.926;2023-08-24T23:56:09;100452.47;;;23.95;88.04
